Flight Track Log - Related Links

Times and Time Zones

All times are in EDT time to prevent confusion due to time zone crossing. See the N254SR flight status page for this flight to view local times or setup timezone preferences in your user account.

Time Position Orientation Groundspeed Altitude Reporting Facility
EDT Latitude Longitude Course Direction KTS MPH feet Rate Location/Type
Sun 11:58:23 AM 33.9500 -83.3500 292° West 112 129 1,500  Level Atlanta TRACON
Sun 11:59:23 AM 33.9667 -83.4000 292° West 135 155 2,200 650 Climbing Atlanta TRACON
Sun 12:00:23 PM 33.9667 -83.4333 270° West 139 160 2,800 632 Climbing Atlanta TRACON
Sun 12:01:17 PM 33.9833 -83.4833 292° West 138 159 3,400 579 Climbing Atlanta TRACON
Sun 12:02:17 PM 33.9833 -83.5333 270° West 144 166 3,900 286 Climbing Atlanta TRACON
Sun 12:03:23 PM 33.9833 -83.5833 270° West 161 185 4,000 48 Climbing Atlanta TRACON
Sun 12:04:23 PM 33.9833 -83.6333 270° West 160 184 4,000 -53 Level Atlanta TRACON
Sun 12:05:17 PM 34.0000 -83.6833 292° West 162 186 3,900  Descending Atlanta TRACON
Sun 12:06:23 PM 34.0000 -83.7333 270° West 162 186 4,000 48 Climbing Atlanta TRACON
Sun 12:07:23 PM 34.0000 -83.8000 270° West 162 186 4,000 -50 Level Atlanta TRACON
Sun 12:08:23 PM 34.0000 -83.8500 270° West 162 186 3,900  Descending Atlanta TRACON
Sun 12:09:23 PM 34.0000 -83.9000 270° West 162 186 4,000 50 Climbing Atlanta TRACON
Sun 12:10:23 PM 34.0000 -83.9500 270° West 161 185 4,000 -50 Level Atlanta TRACON
Sun 12:11:23 PM 34.0000 -84.0000 270° West 158 182 3,900 -50 Descending Atlanta TRACON
Sun 12:12:23 PM 34.0000 -84.0667 270° West 157 181 3,900  Level Atlanta TRACON
Sun 12:13:29 PM 34.0000 -84.1167 270° West 160 184 3,900 52 Level Atlanta TRACON
Sun 12:14:18 PM 34.0167 -84.1667 292° West 162 186 4,000 -53 Climbing Atlanta TRACON
Sun 12:15:23 PM 34.0167 -84.2167 270° West 167 192 3,800 -288 Descending Atlanta TRACON
Sun 12:16:23 PM 34.0167 -84.2833 270° West 172 198 3,400 -417 Descending Atlanta TRACON
Sun 12:17:18 PM 34.0167 -84.3333 270° West 168 193 3,000 -250 Descending Atlanta TRACON
Sun 12:18:23 PM 34.0167 -84.3833 270° West 157 181 2,900 -50 Descending Atlanta TRACON
Sun 12:19:17 PM 34.0167 -84.4333 270° West 155 178 2,900 -105 Level Atlanta TRACON
Sun 12:20:17 PM 34.0167 -84.4833 270° West 153 176 2,700 -545 Descending Atlanta TRACON
Sun 12:21:18 PM 34.0167 -84.5333 270° West 125 144 1,800 -645 Descending Atlanta TRACON
Sun 12:22:18 PM 34.0167 -84.5667 270° West 105 121 1,400 -400 Descending Atlanta TRACON
Sun 12:24:00 PM 34.0000 -84.5833 270° West  Level FlightAware Approximate
Sun 12:31:00 PM 34.0132 -84.5971 270° West  Level Estimated

Login

Don't have an account? Register now (free) for customized features, flight alerts, and more!